createdAt,value
2023-01-26T00:02:31.491Z,2.58
2023-01-26T00:05:16.797Z,2.77
2023-01-26T00:08:02.085Z,2.30
2023-01-26T00:10:50.404Z,2.75
2023-01-26T00:13:36.244Z,2.95
2023-01-26T00:16:21.755Z,2.65
2023-01-26T00:19:07.372Z,2.50
2023-01-26T00:21:52.426Z,2.33
2023-01-26T00:24:37.429Z,2.75
2023-01-26T00:27:22.770Z,2.45
2023-01-26T00:30:09.287Z,2.47
2023-01-26T00:32:57.461Z,2.60
2023-01-26T00:35:44.592Z,2.65
2023-01-26T00:38:30.275Z,2.42
2023-01-26T00:41:34.294Z,2.50
2023-01-26T00:44:19.687Z,2.70
2023-01-26T00:47:07.154Z,2.83
2023-01-26T00:49:52.674Z,2.50
2023-01-26T00:52:38.010Z,2.70
2023-01-26T00:55:23.241Z,2.40
2023-01-26T00:58:09.306Z,2.28
2023-01-26T01:46:58.012Z,2.50
2023-01-26T01:49:47.696Z,2.50
2023-01-26T01:52:33.186Z,2.13
2023-01-26T01:55:20.299Z,2.50
2023-01-26T01:58:07.175Z,2.42
2023-01-26T02:46:43.866Z,2.30
2023-01-26T02:49:47.849Z,2.10
2023-01-26T02:52:34.830Z,2.00
2023-01-26T02:55:30.712Z,2.30
2023-01-26T02:58:16.158Z,2.13
2023-01-26T03:47:04.342Z,2.30
2023-01-26T03:50:08.465Z,2.22
2023-01-26T03:53:12.541Z,2.10
2023-01-26T03:56:18.072Z,1.90
2023-01-26T03:59:08.484Z,1.90
2023-01-26T04:47:38.786Z,2.13
2023-01-26T04:50:24.652Z,2.22
2023-01-26T04:53:10.387Z,2.30
2023-01-26T04:55:56.158Z,2.40
2023-01-26T04:58:41.692Z,2.30
2023-01-26T05:47:10.996Z,2.45
2023-01-26T05:49:57.227Z,2.42
2023-01-26T05:52:47.712Z,2.50
2023-01-26T05:55:33.314Z,2.60
2023-01-26T05:58:18.580Z,2.90
2023-01-26T06:01:04.889Z,3.00
2023-01-26T06:03:57.984Z,3.25
2023-01-26T06:06:46.175Z,2.75
2023-01-26T06:09:43.271Z,2.72
2023-01-26T06:12:35.557Z,2.63
2023-01-26T06:15:30.188Z,2.75
2023-01-26T06:18:15.719Z,2.40
2023-01-26T06:21:07.273Z,2.20
2023-01-26T06:23:52.605Z,2.55
2023-01-26T06:26:39.267Z,2.57
2023-01-26T06:29:24.593Z,2.45
2023-01-26T06:32:14.270Z,2.50
2023-01-26T06:35:01.323Z,2.20
2023-01-26T06:37:50.257Z,2.22
2023-01-26T06:40:36.205Z,2.10
2023-01-26T06:43:22.825Z,2.28
2023-01-26T06:46:08.433Z,2.20
2023-01-26T06:48:54.689Z,2.30
2023-01-26T06:51:48.085Z,2.25
2023-01-26T06:54:34.455Z,2.23
2023-01-26T06:57:31.145Z,2.50
2023-01-26T07:00:29.404Z,2.33
2023-01-26T07:03:31.937Z,3.20
2023-01-26T07:06:17.937Z,3.10
2023-01-26T07:09:03.596Z,2.70
2023-01-26T07:11:49.136Z,3.28
2023-01-26T07:14:35.022Z,2.72
2023-01-26T07:17:20.094Z,3.17
2023-01-26T07:20:06.780Z,2.83
2023-01-26T07:22:52.785Z,2.70
2023-01-26T07:25:37.880Z,2.65
2023-01-26T07:28:23.683Z,2.30
2023-01-26T07:31:10.944Z,2.35
2023-01-26T07:33:56.073Z,2.30
2023-01-26T07:36:41.392Z,2.57
2023-01-26T07:39:26.852Z,2.00
2023-01-26T07:42:13.160Z,2.40
2023-01-26T07:45:07.475Z,2.35
2023-01-26T07:47:56.915Z,2.30
2023-01-26T07:50:42.153Z,2.03
2023-01-26T07:53:29.361Z,1.80
2023-01-26T07:56:16.588Z,2.13
2023-01-26T07:59:03.851Z,2.00
2023-01-26T08:01:50.505Z,1.67
2023-01-26T08:04:36.097Z,2.33
2023-01-26T08:07:21.136Z,1.80
2023-01-26T08:10:07.294Z,1.90
2023-01-26T08:12:52.582Z,1.80
2023-01-26T08:15:38.351Z,1.67
2023-01-26T08:18:23.608Z,1.97
2023-01-26T08:21:09.433Z,1.90
2023-01-26T08:23:55.496Z,1.73
2023-01-26T08:26:41.508Z,1.80
2023-01-26T08:29:26.699Z,1.88
2023-01-26T08:32:11.772Z,1.80
2023-01-26T08:34:56.973Z,1.70
2023-01-26T08:37:42.030Z,1.85
2023-01-26T08:40:27.440Z,2.20
2023-01-26T08:43:12.824Z,1.70
2023-01-26T08:45:58.723Z,2.10
2023-01-26T08:48:43.940Z,1.48
2023-01-26T08:51:29.276Z,1.55
2023-01-26T08:54:14.585Z,1.98
2023-01-26T08:56:59.879Z,1.50
2023-01-26T08:59:45.089Z,1.80
2023-01-26T09:02:30.295Z,1.80
2023-01-26T09:05:15.490Z,1.90
2023-01-26T09:08:00.584Z,1.77
2023-01-26T09:10:45.908Z,1.75
2023-01-26T09:13:31.371Z,1.80
2023-01-26T09:16:20.025Z,1.70
2023-01-26T09:19:05.582Z,1.80
2023-01-26T09:21:54.867Z,1.90
2023-01-26T09:24:39.961Z,1.70
2023-01-26T09:27:25.217Z,1.73
2023-01-26T09:30:11.027Z,1.77
2023-01-26T09:33:01.419Z,1.60
2023-01-26T09:35:46.601Z,1.67
2023-01-26T09:38:33.143Z,1.70
2023-01-26T09:41:40.426Z,1.80
2023-01-26T09:44:28.348Z,1.60
2023-01-26T09:47:16.742Z,1.70
2023-01-26T09:50:08.909Z,1.83
2023-01-26T09:53:06.836Z,1.50
2023-01-26T09:55:52.153Z,1.70
2023-01-26T09:58:40.893Z,1.80
2023-01-26T10:01:43.759Z,1.80
2023-01-26T10:04:40.523Z,1.70
2023-01-26T10:07:26.152Z,1.70
2023-01-26T10:10:25.453Z,1.40
2023-01-26T10:13:14.980Z,1.33
2023-01-26T10:16:08.495Z,1.60
2023-01-26T10:19:11.025Z,1.83
2023-01-26T10:22:02.600Z,1.65
2023-01-26T10:24:50.786Z,1.60
2023-01-26T10:27:36.990Z,1.70
2023-01-26T10:30:22.417Z,1.70
2023-01-26T10:33:23.794Z,1.75
2023-01-26T10:36:12.449Z,1.77
2023-01-26T10:39:08.972Z,1.60
2023-01-26T10:41:58.526Z,1.58
2023-01-26T10:44:43.616Z,1.45
2023-01-26T10:47:29.589Z,1.50
2023-01-26T10:50:23.925Z,1.55
2023-01-26T10:53:22.737Z,1.37
2023-01-26T10:56:17.300Z,1.40
2023-01-26T10:59:03.371Z,1.50
2023-01-26T11:02:13.010Z,1.48
2023-01-26T11:05:07.312Z,1.70
2023-01-26T11:07:58.774Z,1.60
2023-01-26T11:10:52.750Z,1.67
2023-01-26T11:13:37.963Z,1.30
2023-01-26T11:16:26.888Z,1.50
2023-01-26T11:19:18.697Z,1.52
2023-01-26T11:22:26.618Z,1.33
2023-01-26T11:25:32.273Z,1.40
2023-01-26T11:28:42.910Z,1.42
2023-01-26T11:31:49.193Z,1.52
2023-01-26T11:35:05.537Z,1.70
2023-01-26T11:38:25.730Z,1.40
2023-01-26T11:41:32.424Z,1.60
2023-01-26T11:44:36.759Z,1.50
2023-01-26T11:47:43.802Z,1.30
2023-01-26T11:50:51.564Z,1.80
2023-01-26T11:54:12.294Z,1.33
2023-01-26T11:57:22.444Z,1.35
2023-01-26T12:00:30.604Z,1.33
2023-01-26T12:03:25.848Z,1.50
2023-01-26T12:06:38.362Z,1.50
2023-01-26T12:09:33.353Z,1.33
2023-01-26T12:12:31.137Z,1.70
2023-01-26T12:15:24.297Z,1.52
2023-01-26T12:18:12.277Z,1.33
2023-01-26T12:21:05.427Z,1.50
2023-01-26T12:24:02.329Z,1.40
2023-01-26T12:26:53.163Z,1.40
2023-01-26T12:29:49.771Z,1.58
2023-01-26T12:32:35.114Z,1.65
2023-01-26T12:35:44.321Z,1.60
2023-01-26T12:38:45.051Z,1.60
2023-01-26T12:41:36.256Z,1.52
2023-01-26T12:44:37.132Z,1.50
2023-01-26T12:47:44.429Z,1.60
2023-01-26T12:50:39.308Z,2.05
2023-01-26T12:53:39.679Z,1.73
2023-01-26T12:57:00.439Z,1.92
2023-01-26T12:59:48.781Z,2.30
2023-01-26T13:02:36.014Z,2.67
2023-01-26T13:05:34.160Z,2.72
2023-01-26T13:08:31.909Z,3.40
2023-01-26T13:11:39.244Z,3.92
2023-01-26T13:14:58.289Z,3.85
2023-01-26T13:17:56.039Z,3.38
2023-01-26T13:20:42.122Z,3.97
2023-01-26T13:23:41.553Z,4.00
2023-01-26T13:26:33.026Z,3.75
2023-01-26T13:29:24.645Z,3.90
2023-01-26T13:32:10.287Z,3.90
2023-01-26T13:35:03.986Z,4.30
2023-01-26T13:38:05.310Z,4.00
2023-01-26T13:40:50.907Z,3.90
2023-01-26T13:43:52.500Z,3.95
2023-01-26T13:46:52.632Z,3.90
2023-01-26T13:49:43.146Z,3.90
2023-01-26T13:52:29.160Z,4.47
2023-01-26T13:55:33.205Z,5.80
2023-01-26T13:58:19.414Z,5.43
2023-01-26T14:01:11.548Z,5.63
2023-01-26T14:04:07.811Z,4.95
2023-01-26T14:07:06.579Z,5.97
2023-01-26T14:09:53.770Z,6.38
2023-01-26T14:12:43.510Z,6.53
2023-01-26T14:15:32.286Z,7.20
2023-01-26T14:18:22.488Z,7.28
2023-01-26T14:21:24.636Z,8.27
2023-01-26T14:24:10.299Z,8.35
2023-01-26T14:26:56.325Z,7.93
2023-01-26T14:29:42.560Z,8.10
2023-01-26T14:32:29.774Z,7.53
2023-01-26T14:35:23.196Z,7.97
2023-01-26T14:38:12.029Z,7.93
2023-01-26T14:40:59.875Z,8.25
2023-01-26T14:43:45.014Z,8.00
2023-01-26T14:46:30.385Z,8.10
2023-01-26T14:49:43.117Z,7.23
2023-01-26T14:52:33.790Z,7.80
2023-01-26T14:55:26.032Z,7.80
2023-01-26T14:58:21.384Z,6.82
2023-01-26T15:01:06.591Z,7.35
2023-01-26T15:04:17.907Z,7.03
2023-01-26T15:07:40.994Z,7.20
2023-01-26T15:10:42.270Z,6.60
2023-01-26T15:13:30.992Z,6.90
2023-01-26T15:16:19.349Z,6.75
2023-01-26T15:19:07.881Z,6.80
2023-01-26T15:21:53.319Z,6.90
2023-01-26T15:24:38.310Z,7.32
2023-01-26T15:27:23.585Z,6.55
2023-01-26T15:30:17.270Z,5.68
2023-01-26T15:33:03.479Z,6.27
2023-01-26T15:35:57.774Z,6.75
2023-01-26T15:38:43.374Z,6.80
2023-01-26T15:41:29.291Z,7.18
2023-01-26T15:44:17.596Z,7.57
2023-01-26T15:47:03.051Z,7.00
2023-01-26T15:49:48.329Z,5.82
2023-01-26T15:52:33.727Z,5.03
2023-01-26T15:55:21.851Z,4.65
2023-01-26T15:58:07.651Z,5.43
2023-01-26T16:00:53.578Z,4.20
2023-01-26T16:03:39.075Z,4.30
2023-01-26T16:06:25.956Z,4.18
2023-01-26T16:09:11.639Z,3.80
2023-01-26T16:11:57.092Z,3.15
2023-01-26T16:14:42.659Z,3.40
2023-01-26T16:17:28.133Z,3.60
2023-01-26T16:20:13.586Z,3.53
2023-01-26T16:22:59.359Z,4.38
2023-01-26T16:25:44.974Z,4.18
2023-01-26T16:28:30.467Z,3.77
2023-01-26T16:31:25.661Z,4.40
2023-01-26T16:34:11.375Z,3.90
2023-01-26T16:36:57.306Z,3.70
2023-01-26T16:39:42.984Z,3.80
2023-01-26T16:42:28.232Z,3.80
2023-01-26T16:45:26.651Z,3.92
2023-01-26T16:48:14.161Z,3.60
2023-01-26T16:50:59.401Z,4.10
2023-01-26T16:53:45.387Z,3.47
2023-01-26T16:56:32.576Z,3.77
2023-01-26T16:59:18.010Z,3.20
2023-01-26T17:02:03.781Z,3.42
2023-01-26T17:04:49.262Z,3.50
2023-01-26T17:07:34.499Z,3.55
2023-01-26T17:10:22.514Z,3.20
2023-01-26T17:13:08.373Z,3.53
2023-01-26T17:15:56.663Z,3.40
2023-01-26T17:18:42.743Z,3.45
2023-01-26T17:21:28.385Z,3.10
2023-01-26T17:24:14.079Z,2.97
2023-01-26T17:26:59.293Z,3.20
2023-01-26T17:29:45.063Z,3.45
2023-01-26T17:32:30.840Z,3.05
2023-01-26T17:35:16.228Z,3.20
2023-01-26T17:38:01.605Z,2.93
2023-01-26T17:40:55.149Z,3.47
2023-01-26T17:43:40.807Z,2.95
2023-01-26T17:46:26.010Z,3.25
2023-01-26T17:49:11.832Z,2.90
2023-01-26T17:51:57.525Z,2.87
2023-01-26T17:54:43.529Z,3.10
2023-01-26T17:57:29.390Z,2.80
2023-01-26T18:00:15.984Z,2.70
2023-01-26T18:03:01.367Z,2.50
2023-01-26T18:05:52.125Z,2.53
2023-01-26T18:08:38.998Z,2.60
2023-01-26T18:11:24.347Z,3.22
2023-01-26T18:14:09.787Z,3.40
2023-01-26T18:16:54.982Z,3.00
2023-01-26T18:19:40.741Z,3.30
2023-01-26T18:22:25.919Z,3.38
2023-01-26T18:25:11.984Z,3.00
2023-01-26T18:27:58.194Z,3.55
2023-01-26T18:30:43.457Z,3.90
2023-01-26T18:33:28.975Z,3.37
2023-01-26T18:36:17.054Z,3.13
2023-01-26T18:39:08.672Z,3.22
2023-01-26T18:41:54.371Z,3.10
2023-01-26T18:44:40.277Z,3.05
2023-01-26T18:47:25.825Z,3.20
2023-01-26T18:50:11.794Z,3.28
2023-01-26T18:52:57.079Z,3.00
2023-01-26T18:55:42.422Z,3.13
2023-01-26T18:58:28.715Z,3.58
2023-01-26T19:01:16.606Z,3.23
2023-01-26T19:04:04.042Z,3.17
2023-01-26T19:06:49.865Z,3.10
2023-01-26T19:09:35.795Z,2.55
2023-01-26T19:12:21.038Z,3.20
2023-01-26T19:15:07.931Z,2.90
2023-01-26T19:17:53.841Z,2.83
2023-01-26T19:20:39.790Z,2.97
2023-01-26T19:23:25.379Z,3.17
2023-01-26T19:26:13.436Z,3.58
2023-01-26T19:28:59.515Z,4.37
2023-01-26T19:31:47.928Z,3.22
2023-01-26T19:34:35.071Z,3.50
2023-01-26T19:37:20.465Z,3.58
2023-01-26T19:40:06.478Z,3.30
2023-01-26T19:42:52.143Z,3.00
2023-01-26T19:45:39.337Z,3.15
2023-01-26T19:48:27.148Z,3.30
2023-01-26T19:51:14.133Z,3.08
2023-01-26T19:54:00.073Z,3.38
2023-01-26T19:56:45.360Z,2.90
2023-01-26T19:59:30.559Z,3.47
2023-01-26T20:02:16.228Z,3.33
2023-01-26T20:05:01.431Z,2.80
2023-01-26T20:07:46.793Z,3.30
2023-01-26T20:10:32.370Z,3.23
2023-01-26T20:13:18.150Z,3.22
2023-01-26T20:16:07.122Z,3.03
2023-01-26T20:18:52.600Z,2.72
2023-01-26T20:21:39.282Z,2.90
2023-01-26T20:24:26.264Z,2.73
2023-01-26T20:27:11.722Z,3.13
2023-01-26T20:29:57.057Z,3.10
2023-01-26T20:32:42.658Z,3.17
2023-01-26T20:35:30.054Z,3.20
2023-01-26T20:38:15.407Z,3.27
2023-01-26T20:41:06.231Z,2.92
2023-01-26T20:44:01.226Z,2.80
2023-01-26T20:46:47.371Z,2.80
2023-01-26T20:49:32.501Z,2.88
2023-01-26T20:52:18.010Z,2.83
2023-01-26T20:55:04.365Z,2.80
2023-01-26T20:57:50.598Z,3.13
2023-01-26T21:00:36.647Z,2.67
2023-01-26T21:03:21.988Z,2.40
2023-01-26T21:06:08.971Z,3.10
2023-01-26T21:08:57.208Z,2.90
2023-01-26T21:11:42.544Z,2.80
2023-01-26T21:14:27.876Z,3.05
2023-01-26T21:17:13.323Z,3.13
2023-01-26T21:19:58.864Z,3.20
2023-01-26T21:22:44.545Z,2.72
2023-01-26T21:25:29.720Z,2.70
2023-01-26T21:28:15.675Z,2.55
2023-01-26T21:31:08.944Z,2.60
2023-01-26T21:33:55.532Z,2.93
2023-01-26T21:36:40.747Z,2.67
2023-01-26T21:39:26.484Z,2.50
2023-01-26T21:42:11.688Z,2.67
2023-01-26T21:45:15.765Z,2.80
2023-01-26T21:48:20.023Z,2.87
2023-01-26T21:51:24.188Z,2.30
2023-01-26T21:54:10.349Z,2.80
2023-01-26T21:56:56.462Z,2.80
2023-01-26T21:59:41.952Z,2.72
2023-01-26T22:02:27.216Z,2.63
2023-01-26T22:05:12.581Z,3.03
2023-01-26T22:07:57.751Z,2.88
2023-01-26T22:10:43.022Z,2.75
2023-01-26T22:13:28.477Z,3.10
2023-01-26T22:16:14.690Z,2.70
2023-01-26T22:19:00.035Z,2.65
2023-01-26T22:21:45.696Z,3.05
2023-01-26T22:24:30.662Z,2.78
2023-01-26T22:27:16.083Z,2.50
2023-01-26T22:30:01.601Z,2.40
2023-01-26T22:32:46.856Z,2.90
2023-01-26T22:35:33.064Z,2.35
2023-01-26T22:38:18.306Z,3.22
2023-01-26T22:41:05.878Z,2.60
2023-01-26T22:43:54.772Z,2.70
2023-01-26T22:46:40.712Z,2.80
2023-01-26T22:49:26.114Z,2.47
2023-01-26T22:52:11.339Z,2.63
2023-01-26T22:54:56.554Z,2.90
2023-01-26T22:57:41.741Z,2.90
2023-01-26T23:00:27.241Z,3.08
2023-01-26T23:03:12.657Z,2.40
2023-01-26T23:06:02.900Z,2.30
2023-01-26T23:08:49.258Z,2.78
2023-01-26T23:11:34.541Z,2.80
2023-01-26T23:14:19.953Z,2.50
2023-01-26T23:17:07.331Z,2.35
2023-01-26T23:19:55.159Z,2.80
2023-01-26T23:22:40.934Z,2.55
2023-01-26T23:25:44.969Z,2.63
2023-01-26T23:28:34.385Z,2.80
2023-01-26T23:31:20.491Z,2.70
2023-01-26T23:34:05.805Z,2.72
2023-01-26T23:36:51.005Z,2.58
2023-01-26T23:39:36.236Z,2.80
2023-01-26T23:42:21.505Z,2.63
